createdAt,value
2018-06-22T00:00:23.528Z,68.30
2018-06-22T00:02:52.824Z,70.70
2018-06-22T00:05:21.983Z,68.70
2018-06-22T00:07:50.918Z,70.10
2018-06-22T00:10:20.303Z,70.80
2018-06-22T00:12:49.301Z,68.90
2018-06-22T00:15:18.396Z,69.10
2018-06-22T00:17:47.294Z,70.50
2018-06-22T00:20:16.278Z,70.20
2018-06-22T00:22:45.188Z,70.40
2018-06-22T00:25:14.115Z,72.80
2018-06-22T00:27:43.179Z,70.60
2018-06-22T00:30:12.106Z,69.10
2018-06-22T00:32:41.004Z,72.30
2018-06-22T00:35:09.892Z,71.70
2018-06-22T00:37:38.847Z,72.10
2018-06-22T00:40:07.843Z,72.70
2018-06-22T00:42:36.794Z,76.00
2018-06-22T00:45:05.914Z,75.90
2018-06-22T00:47:34.804Z,77.60
2018-06-22T00:50:03.862Z,77.40
2018-06-22T00:52:33.295Z,78.90
2018-06-22T00:55:02.248Z,78.80
2018-06-22T00:57:31.601Z,80.30
2018-06-22T01:00:01.344Z,82.40
2018-06-22T01:02:30.606Z,82.60
2018-06-22T01:05:00.033Z,84.20
2018-06-22T01:07:28.942Z,83.00
2018-06-22T01:09:57.873Z,84.00
2018-06-22T01:12:27.071Z,86.20
2018-06-22T01:14:55.971Z,86.70
2018-06-22T01:17:24.895Z,86.40
2018-06-22T01:19:53.809Z,88.10
2018-06-22T01:22:22.816Z,86.40
2018-06-22T01:24:51.688Z,90.40
2018-06-22T01:27:20.635Z,90.10
2018-06-22T01:29:49.518Z,90.60
2018-06-22T01:32:18.438Z,91.90
2018-06-22T01:34:47.429Z,91.40
2018-06-22T01:37:16.346Z,92.20
2018-06-22T01:39:45.304Z,92.20
2018-06-22T01:42:14.399Z,92.90
2018-06-22T01:44:43.390Z,92.70
2018-06-22T01:47:12.389Z,93.20
2018-06-22T01:49:41.744Z,93.20
2018-06-22T01:52:10.644Z,93.80
2018-06-22T01:54:39.587Z,94.20
2018-06-22T01:57:08.508Z,93.80
2018-06-22T01:59:37.641Z,93.90
2018-06-22T02:02:06.890Z,93.40
2018-06-22T02:04:36.284Z,94.70
2018-06-22T02:07:05.451Z,94.00
2018-06-22T02:09:34.412Z,94.50
2018-06-22T02:12:03.412Z,94.60
2018-06-22T02:14:32.360Z,94.30
2018-06-22T02:17:01.598Z,95.20
2018-06-22T02:19:30.499Z,94.80
2018-06-22T02:21:59.407Z,93.70
2018-06-22T02:24:28.774Z,92.90
2018-06-22T02:26:57.685Z,92.80
2018-06-22T02:29:26.656Z,92.60
2018-06-22T02:31:55.643Z,92.60
2018-06-22T02:34:24.596Z,93.10
2018-06-22T02:36:54.016Z,93.50
2018-06-22T02:39:22.907Z,94.30
2018-06-22T02:41:51.871Z,94.20
2018-06-22T02:44:20.835Z,95.10
2018-06-22T02:46:50.304Z,94.20
2018-06-22T02:49:19.215Z,94.10
2018-06-22T02:51:48.388Z,94.20
2018-06-22T02:54:17.314Z,93.70
2018-06-22T02:56:46.265Z,92.90
2018-06-22T02:59:15.177Z,92.50
2018-06-22T03:01:44.039Z,92.40
2018-06-22T03:04:12.948Z,93.80
2018-06-22T03:06:41.818Z,95.10
2018-06-22T03:09:10.743Z,94.80
2018-06-22T03:11:39.627Z,94.50
2018-06-22T03:14:08.558Z,95.30
2018-06-22T03:16:37.451Z,95.10
2018-06-22T03:19:06.350Z,95.40
2018-06-22T03:21:35.262Z,95.80
2018-06-22T03:24:04.163Z,95.70
2018-06-22T03:26:33.235Z,95.40
2018-06-22T03:29:02.118Z,94.40
2018-06-22T03:31:31.151Z,94.90
2018-06-22T03:34:00.612Z,95.00
2018-06-22T03:36:29.807Z,92.60
2018-06-22T03:38:59.050Z,88.90
2018-06-22T03:41:27.988Z,86.00
2018-06-22T03:43:57.087Z,85.60
2018-06-22T03:46:26.180Z,82.00
2018-06-22T03:48:55.582Z,70.20
2018-06-22T03:51:24.639Z,66.50
2018-06-22T03:53:53.664Z,61.60
2018-06-22T03:56:22.535Z,56.10
2018-06-22T03:58:51.471Z,53.30
2018-06-22T04:01:20.576Z,50.00
2018-06-22T04:03:49.515Z,47.80
2018-06-22T04:06:18.441Z,48.20
2018-06-22T04:08:47.477Z,45.50
2018-06-22T04:11:16.359Z,43.90
2018-06-22T04:13:45.604Z,42.90
2018-06-22T04:16:14.493Z,42.70
2018-06-22T04:18:43.462Z,43.00
2018-06-22T04:21:12.418Z,43.40
2018-06-22T04:23:41.391Z,42.70
2018-06-22T04:26:10.321Z,44.10
2018-06-22T04:28:39.194Z,47.10
2018-06-22T04:31:08.114Z,48.00
2018-06-22T04:33:37.106Z,49.10
2018-06-22T04:36:06.383Z,48.90
2018-06-22T04:38:35.709Z,50.70
2018-06-22T04:41:05.633Z,51.30
2018-06-22T04:43:34.655Z,51.60
2018-06-22T04:46:04.618Z,52.90
2018-06-22T04:48:33.516Z,53.30
2018-06-22T04:51:02.907Z,52.20
2018-06-22T04:53:32.164Z,51.20
2018-06-22T04:56:01.090Z,54.00
2018-06-22T04:58:30.184Z,51.10
2018-06-22T05:00:59.068Z,51.50
2018-06-22T05:03:28.047Z,50.30
2018-06-22T05:05:56.983Z,47.60
2018-06-22T05:08:25.926Z,47.60
2018-06-22T05:10:54.843Z,48.00
2018-06-22T05:13:23.758Z,44.70
2018-06-22T05:15:52.660Z,44.70
2018-06-22T05:18:21.603Z,43.30
2018-06-22T05:20:50.485Z,41.70
2018-06-22T05:23:20.195Z,41.20
2018-06-22T05:25:49.606Z,40.90
2018-06-22T05:28:18.481Z,41.20
2018-06-22T05:30:47.449Z,40.80
2018-06-22T05:33:16.343Z,40.40
2018-06-22T05:35:45.280Z,37.70
2018-06-22T05:38:14.808Z,35.90
2018-06-22T05:40:44.882Z,35.20
2018-06-22T05:43:14.681Z,32.00
2018-06-22T05:45:44.386Z,30.00
2018-06-22T05:48:13.269Z,29.10
2018-06-22T05:50:42.523Z,26.70
2018-06-22T05:53:11.417Z,25.80
2018-06-22T05:55:40.340Z,24.70
2018-06-22T05:58:10.729Z,23.20
2018-06-22T06:00:40.508Z,23.30
2018-06-22T06:03:09.469Z,21.80
2018-06-22T06:05:39.742Z,20.20
2018-06-22T06:08:08.750Z,19.30
2018-06-22T06:10:37.750Z,17.90
2018-06-22T06:13:06.758Z,16.90
2018-06-22T06:15:35.631Z,18.60
2018-06-22T06:18:04.600Z,17.50
2018-06-22T06:20:36.805Z,19.60
2018-06-22T06:23:06.260Z,20.00
2018-06-22T06:25:35.354Z,19.40
2018-06-22T06:28:04.301Z,17.90
2018-06-22T06:30:33.267Z,16.10
2018-06-22T06:33:04.149Z,15.50
2018-06-22T06:35:33.739Z,17.00
2018-06-22T06:40:31.193Z,18.30
2018-06-22T06:43:00.075Z,16.70
2018-06-22T06:45:29.023Z,14.90
2018-06-22T06:47:57.888Z,13.80
2018-06-22T06:50:26.814Z,14.10
2018-06-22T06:52:57.567Z,15.40
2018-06-22T06:55:26.517Z,16.10
2018-06-22T06:57:55.781Z,16.10
2018-06-22T07:00:25.230Z,15.30
2018-06-22T07:02:54.767Z,13.10
2018-06-22T07:05:24.348Z,14.20
2018-06-22T07:07:53.320Z,16.30
2018-06-22T07:10:23.333Z,16.60
2018-06-22T07:12:52.267Z,16.20
2018-06-22T07:15:21.829Z,13.20
2018-06-22T07:17:51.245Z,12.20
2018-06-22T07:20:20.227Z,13.40
2018-06-22T07:22:49.255Z,16.90
2018-06-22T07:25:18.285Z,20.70
2018-06-22T07:27:47.757Z,22.20
2018-06-22T07:30:17.702Z,22.70
2018-06-22T07:32:46.931Z,25.60
2018-06-22T07:35:15.844Z,20.60
2018-06-22T07:37:45.108Z,15.80
2018-06-22T07:40:14.131Z,15.50
2018-06-22T07:42:43.133Z,18.60
2018-06-22T07:45:12.040Z,21.20
2018-06-22T07:47:40.982Z,18.10
2018-06-22T07:50:09.884Z,15.20
2018-06-22T07:52:38.886Z,13.50
2018-06-22T07:55:07.897Z,13.30
2018-06-22T08:00:06.342Z,10.70
2018-06-22T08:02:35.242Z,10.50
2018-06-22T08:05:04.240Z,11.30
2018-06-22T08:07:33.158Z,15.70
2018-06-22T08:10:02.048Z,18.90
2018-06-22T08:12:31.006Z,19.70
2018-06-22T08:15:00.466Z,17.30
2018-06-22T08:17:29.425Z,18.00
2018-06-22T08:19:58.312Z,19.30
2018-06-22T08:22:27.495Z,21.20
2018-06-22T08:24:56.403Z,22.60
2018-06-22T08:27:25.332Z,22.80
2018-06-22T08:29:54.232Z,22.10
2018-06-22T08:32:23.167Z,21.50
2018-06-22T08:34:52.215Z,20.20
2018-06-22T08:37:21.175Z,22.30
2018-06-22T08:39:50.107Z,24.20
2018-06-22T08:42:19.115Z,26.40
2018-06-22T08:44:48.188Z,21.70
2018-06-22T08:47:17.090Z,19.10
2018-06-22T08:49:46.078Z,16.90
2018-06-22T08:52:14.958Z,16.30
2018-06-22T08:54:43.941Z,16.60
2018-06-22T08:57:12.858Z,20.60
2018-06-22T08:59:41.956Z,23.30
2018-06-22T09:02:10.935Z,25.20
2018-06-22T09:04:40.528Z,27.20
2018-06-22T09:07:09.427Z,28.80
2018-06-22T09:09:38.330Z,29.40
2018-06-22T09:14:36.060Z,30.70
2018-06-22T09:17:05.355Z,31.60
2018-06-22T09:19:34.322Z,31.20
2018-06-22T09:22:03.271Z,30.80
2018-06-22T09:24:32.216Z,30.40
2018-06-22T09:27:01.148Z,28.80
2018-06-22T09:29:30.080Z,28.10
2018-06-22T09:31:59.007Z,27.50
2018-06-22T09:34:27.998Z,26.90
2018-06-22T09:36:56.986Z,25.90
2018-06-22T09:39:25.862Z,25.30
2018-06-22T09:41:55.154Z,25.20
2018-06-22T09:44:32.494Z,26.70
2018-06-22T09:47:01.400Z,27.80
2018-06-22T09:49:30.380Z,28.60
2018-06-22T09:51:59.292Z,29.60
2018-06-22T09:54:28.290Z,29.70
2018-06-22T09:56:57.618Z,30.60
2018-06-22T09:59:26.918Z,29.80
2018-06-22T10:01:56.383Z,29.30
2018-06-22T10:04:25.639Z,29.30
2018-06-22T10:06:54.524Z,28.50
2018-06-22T10:09:23.501Z,28.90
2018-06-22T10:11:52.534Z,29.40
2018-06-22T10:14:21.526Z,29.20
2018-06-22T10:16:50.695Z,29.80
2018-06-22T10:19:20.067Z,29.90
2018-06-22T10:21:49.662Z,29.10
2018-06-22T10:24:18.644Z,30.00
2018-06-22T10:26:47.780Z,30.10
2018-06-22T10:31:45.703Z,28.30
2018-06-22T10:34:15.315Z,29.90
2018-06-22T10:39:18.279Z,28.20
2018-06-22T10:41:48.047Z,28.90
2018-06-22T10:44:17.477Z,31.70
2018-06-22T10:46:46.979Z,33.10
2018-06-22T10:49:16.072Z,34.20
2018-06-22T10:51:45.214Z,36.10
2018-06-22T10:54:14.406Z,36.10
2018-06-22T10:56:43.519Z,36.90
2018-06-22T10:59:12.768Z,36.00
2018-06-22T11:01:42.335Z,34.50
2018-06-22T11:04:11.496Z,31.20
2018-06-22T11:06:41.948Z,30.00
2018-06-22T11:09:12.620Z,27.60
2018-06-22T11:11:41.776Z,27.40
2018-06-22T11:14:10.791Z,26.00
2018-06-22T11:19:08.866Z,25.60
2018-06-22T11:21:37.817Z,27.10
2018-06-22T11:24:06.879Z,26.80
2018-06-22T11:26:35.866Z,28.10
2018-06-22T11:29:04.830Z,28.40
2018-06-22T11:31:33.839Z,28.90
2018-06-22T11:38:59.871Z,29.60
2018-06-22T11:41:28.862Z,29.90
2018-06-22T11:43:57.768Z,29.60
2018-06-22T11:46:26.701Z,28.80
2018-06-22T11:48:55.793Z,28.70
2018-06-22T11:51:24.672Z,28.00
2018-06-22T11:53:54.303Z,26.80
2018-06-22T11:56:23.627Z,26.40
2018-06-22T11:58:52.809Z,26.90
2018-06-22T12:01:22.174Z,27.10
2018-06-22T12:03:51.088Z,27.30
2018-06-22T12:06:20.092Z,27.60
2018-06-22T12:08:49.670Z,27.40
2018-06-22T12:11:18.686Z,28.10
2018-06-22T12:13:48.268Z,26.50
2018-06-22T12:16:17.270Z,26.70
2018-06-22T12:18:46.914Z,25.40
2018-06-22T12:21:15.935Z,23.80
2018-06-22T12:23:44.910Z,24.60
2018-06-22T12:26:13.844Z,24.50
2018-06-22T12:28:42.858Z,23.90
2018-06-22T12:31:11.810Z,23.70
2018-06-22T12:33:40.730Z,24.00
2018-06-22T12:36:09.648Z,24.80
2018-06-22T12:38:38.564Z,25.90
2018-06-22T12:41:20.553Z,25.40
2018-06-22T12:43:49.553Z,25.70
2018-06-22T12:46:18.588Z,25.40
2018-06-22T12:48:48.436Z,24.70
2018-06-22T12:51:17.342Z,25.00
2018-06-22T12:53:46.270Z,24.80
2018-06-22T12:56:15.208Z,24.80
2018-06-22T12:58:44.172Z,24.60
2018-06-22T13:01:27.356Z,24.80
2018-06-22T13:03:56.490Z,24.40
2018-06-22T13:06:25.450Z,24.70
2018-06-22T13:08:54.411Z,24.80
2018-06-22T13:11:23.302Z,24.70
2018-06-22T13:13:53.346Z,24.20
2018-06-22T13:16:22.315Z,24.80
2018-06-22T13:18:51.300Z,25.60
2018-06-22T13:21:20.199Z,25.00
2018-06-22T13:23:49.253Z,25.30
2018-06-22T13:26:18.198Z,25.30
2018-06-22T13:28:47.145Z,26.00
2018-06-22T13:31:16.057Z,26.80
2018-06-22T13:33:45.031Z,26.40
2018-06-22T13:36:13.955Z,26.80
2018-06-22T13:38:42.853Z,26.00
2018-06-22T13:41:11.771Z,27.00
2018-06-22T13:43:40.689Z,25.40
2018-06-22T13:46:09.666Z,26.30
2018-06-22T13:48:38.582Z,25.50
2018-06-22T13:51:07.507Z,25.50
2018-06-22T13:53:36.446Z,25.10
2018-06-22T13:56:05.486Z,25.50
2018-06-22T13:58:34.433Z,26.20
2018-06-22T14:01:03.359Z,26.70
2018-06-22T14:03:32.294Z,26.50
2018-06-22T14:06:06.611Z,26.90
2018-06-22T14:08:35.528Z,27.20
2018-06-22T14:11:04.396Z,27.60
2018-06-22T14:13:33.323Z,27.60
2018-06-22T14:16:02.200Z,27.70
2018-06-22T14:18:31.180Z,27.90
2018-06-22T14:21:00.186Z,28.00
2018-06-22T14:23:29.146Z,27.40
2018-06-22T14:25:58.609Z,27.10
2018-06-22T14:28:27.532Z,27.10
2018-06-22T14:30:57.191Z,27.80
2018-06-22T14:33:26.121Z,28.30
2018-06-22T14:35:55.230Z,29.30
2018-06-22T14:38:24.515Z,29.00
2018-06-22T14:40:53.480Z,28.60
2018-06-22T14:43:22.538Z,28.40
2018-06-22T14:45:51.473Z,27.30
2018-06-22T14:48:20.539Z,24.80
2018-06-22T14:50:49.611Z,26.10
2018-06-22T14:53:23.856Z,27.10
2018-06-22T14:55:59.851Z,26.00
2018-06-22T14:58:34.742Z,27.00
2018-06-22T15:01:08.979Z,26.50
2018-06-22T15:03:43.227Z,26.80
2018-06-22T15:06:17.535Z,26.80
2018-06-22T15:08:46.517Z,26.70
2018-06-22T15:11:15.500Z,27.80
2018-06-22T15:13:44.475Z,28.20
2018-06-22T15:16:13.358Z,28.40
2018-06-22T15:18:42.294Z,29.30
2018-06-22T15:21:11.215Z,29.80
2018-06-22T15:23:40.223Z,30.50
2018-06-22T15:26:09.146Z,33.30
2018-06-22T15:28:38.117Z,32.80
2018-06-22T15:31:07.250Z,33.70
2018-06-22T15:33:41.431Z,35.20
2018-06-22T15:36:15.687Z,37.50
2018-06-22T15:38:49.733Z,39.10
2018-06-22T15:41:23.997Z,37.20
2018-06-22T15:43:58.284Z,36.70
2018-06-22T15:46:32.408Z,35.40
2018-06-22T15:49:06.611Z,35.50
2018-06-22T15:51:41.333Z,36.80
2018-06-22T15:54:15.498Z,37.10
2018-06-22T15:56:44.925Z,37.10
2018-06-22T15:59:13.883Z,37.60
2018-06-22T16:01:42.816Z,38.90
2018-06-22T16:04:12.869Z,36.70
2018-06-22T16:06:41.827Z,37.60
2018-06-22T16:09:11.746Z,38.40
2018-06-22T16:11:40.683Z,38.80
2018-06-22T16:14:14.833Z,39.30
2018-06-22T16:16:48.981Z,39.70
2018-06-22T16:19:23.259Z,41.30
2018-06-22T16:21:57.461Z,40.90
2018-06-22T16:25:34.897Z,40.60
2018-06-22T16:28:04.930Z,39.90
2018-06-22T16:30:33.912Z,40.50
2018-06-22T16:33:02.939Z,41.60
2018-06-22T16:35:31.892Z,42.90
2018-06-22T16:38:00.832Z,42.20
2018-06-22T16:40:29.738Z,41.70
2018-06-22T16:42:58.692Z,40.80
2018-06-22T16:45:27.704Z,41.00
2018-06-22T16:47:56.607Z,42.50
2018-06-22T16:50:25.566Z,43.80
2018-06-22T16:52:54.562Z,44.90
2018-06-22T16:55:23.821Z,44.80
2018-06-22T16:57:54.420Z,45.30
2018-06-22T17:00:23.362Z,47.10
2018-06-22T17:02:52.239Z,47.20
2018-06-22T17:05:21.176Z,48.50
2018-06-22T17:07:55.283Z,49.20
2018-06-22T17:10:29.339Z,51.10
2018-06-22T17:13:03.599Z,52.60
2018-06-22T17:15:37.779Z,53.30
2018-06-22T17:18:12.042Z,52.90
2018-06-22T17:20:41.156Z,48.90
2018-06-22T17:23:10.110Z,48.30
2018-06-22T17:25:39.014Z,48.00
2018-06-22T17:28:07.918Z,49.00
2018-06-22T17:30:36.815Z,49.80
2018-06-22T17:33:05.834Z,50.00
2018-06-22T17:35:35.263Z,51.10
2018-06-22T17:38:04.192Z,49.90
2018-06-22T17:40:33.139Z,52.00
2018-06-22T17:43:02.057Z,52.10
2018-06-22T17:45:31.007Z,52.40
2018-06-22T17:47:59.988Z,53.10
2018-06-22T17:50:30.392Z,53.40
2018-06-22T17:52:59.922Z,54.20
2018-06-22T17:55:29.135Z,54.20
2018-06-22T17:57:58.146Z,54.40
2018-06-22T18:00:32.333Z,54.60
2018-06-22T18:03:14.210Z,55.30
2018-06-22T18:05:48.320Z,55.80
2018-06-22T18:08:22.444Z,56.60
2018-06-22T18:10:56.511Z,56.10
2018-06-22T18:13:26.067Z,57.00
2018-06-22T18:15:55.023Z,58.00
2018-06-22T18:18:24.524Z,58.00
2018-06-22T18:20:53.477Z,57.60
2018-06-22T18:23:22.886Z,58.30
2018-06-22T18:25:52.171Z,59.80
2018-06-22T18:28:21.584Z,60.90
2018-06-22T18:30:50.496Z,63.70
2018-06-22T18:35:47.971Z,67.50
2018-06-22T18:38:16.989Z,70.20
2018-06-22T18:40:45.895Z,71.60
2018-06-22T18:43:20.046Z,73.60
2018-06-22T18:45:48.926Z,75.70
2018-06-22T18:48:17.940Z,78.10
2018-06-22T18:53:21.439Z,82.90
2018-06-22T18:55:55.598Z,85.40
2018-06-22T18:59:33.360Z,85.70
2018-06-22T19:03:08.006Z,86.30
2018-06-22T19:05:37.112Z,87.90
2018-06-22T19:08:06.844Z,90.10
2018-06-22T19:10:35.757Z,90.50
2018-06-22T19:13:04.694Z,91.00
2018-06-22T19:15:33.662Z,91.70
2018-06-22T19:20:31.278Z,92.90
2018-06-22T19:23:00.181Z,93.80
2018-06-22T19:25:29.157Z,94.30
2018-06-22T19:27:58.166Z,94.90
2018-06-22T19:30:27.071Z,96.60
2018-06-22T19:32:56.017Z,97.10
2018-06-22T19:35:24.924Z,97.00
2018-06-22T19:37:53.947Z,98.20
2018-06-22T19:40:22.871Z,99.70
2018-06-22T19:42:51.842Z,99.90
2018-06-22T19:45:26.544Z,99.90
2018-06-22T19:48:00.916Z,99.90
2018-06-22T19:50:35.100Z,99.90
2018-06-22T19:55:37.927Z,99.50
2018-06-22T19:58:06.932Z,99.70
2018-06-22T20:00:35.914Z,99.30
2018-06-22T20:03:04.910Z,98.70
2018-06-22T20:05:33.898Z,98.90
2018-06-22T20:08:02.885Z,99.10
2018-06-22T20:10:31.799Z,99.60
2018-06-22T20:13:00.751Z,99.10
2018-06-22T20:15:29.811Z,99.90
2018-06-22T20:18:02.451Z,99.90
2018-06-22T20:20:31.614Z,99.90
2018-06-22T20:23:00.622Z,99.90
2018-06-22T20:25:34.864Z,99.90
2018-06-22T20:28:03.834Z,99.90
2018-06-22T20:30:32.789Z,99.90
2018-06-22T20:33:01.786Z,99.90
2018-06-22T20:35:36.035Z,99.90
2018-06-22T20:40:44.774Z,99.90
2018-06-22T20:43:18.987Z,99.90
2018-06-22T20:45:55.382Z,99.90
2018-06-22T20:48:30.509Z,99.90
2018-06-22T20:53:28.187Z,99.90
2018-06-22T20:55:57.139Z,99.90
2018-06-22T20:58:26.122Z,99.90
2018-06-22T21:00:55.064Z,99.90
2018-06-22T21:03:23.971Z,99.90
2018-06-22T21:05:53.863Z,99.90
2018-06-22T21:08:23.312Z,99.90
2018-06-22T21:10:54.116Z,99.90
2018-06-22T21:13:23.113Z,99.90
2018-06-22T21:15:52.036Z,99.90
2018-06-22T21:18:20.963Z,99.90
2018-06-22T21:23:23.736Z,99.90
2018-06-22T21:25:52.717Z,99.90
2018-06-22T21:28:26.805Z,99.90
2018-06-22T21:31:04.037Z,99.90
2018-06-22T21:33:38.226Z,99.90
2018-06-22T21:36:12.471Z,99.90
2018-06-22T21:38:46.583Z,99.90
2018-06-22T21:41:16.490Z,99.90
2018-06-22T21:43:45.476Z,99.90
2018-06-22T21:46:14.490Z,99.90
2018-06-22T21:48:43.467Z,99.90
2018-06-22T21:51:12.369Z,99.90
2018-06-22T21:53:41.495Z,99.90
2018-06-22T21:56:10.280Z,99.90
2018-06-22T21:58:39.253Z,99.90
2018-06-22T22:01:11.966Z,99.90
2018-06-22T22:03:41.026Z,99.90
2018-06-22T22:06:09.964Z,99.90
2018-06-22T22:08:38.878Z,99.90
2018-06-22T22:11:10.822Z,99.90
2018-06-22T22:13:41.229Z,99.90
2018-06-22T22:16:10.548Z,99.90
2018-06-22T22:18:39.514Z,99.90
2018-06-22T22:21:08.473Z,99.90
2018-06-22T22:23:37.371Z,99.90
2018-06-22T22:26:06.863Z,99.90
2018-06-22T22:28:35.765Z,99.90
2018-06-22T22:31:04.706Z,99.90
2018-06-22T22:33:33.624Z,99.90
2018-06-22T22:36:02.607Z,99.90
2018-06-22T22:38:31.486Z,99.90
2018-06-22T22:41:00.387Z,99.90
2018-06-22T22:43:29.398Z,99.90
2018-06-22T22:45:58.290Z,99.90
2018-06-22T22:48:27.215Z,99.90
2018-06-22T22:50:56.164Z,99.90
2018-06-22T22:53:25.116Z,99.90
2018-06-22T22:55:54.046Z,99.90
2018-06-22T22:58:23.023Z,99.90
2018-06-22T23:00:51.927Z,99.90
2018-06-22T23:03:20.834Z,99.90
2018-06-22T23:05:49.830Z,99.90
2018-06-22T23:08:18.786Z,99.90
2018-06-22T23:10:47.705Z,99.90
2018-06-22T23:13:16.614Z,99.90
2018-06-22T23:15:45.607Z,99.90
2018-06-22T23:18:14.511Z,99.90
2018-06-22T23:20:43.491Z,99.90
2018-06-22T23:23:23.531Z,99.90
2018-06-22T23:25:53.007Z,99.90
2018-06-22T23:28:21.933Z,99.90
2018-06-22T23:30:50.859Z,99.90
2018-06-22T23:33:19.784Z,99.90
2018-06-22T23:35:48.726Z,99.90
2018-06-22T23:38:17.674Z,99.90
2018-06-22T23:40:46.663Z,99.90
2018-06-22T23:43:15.862Z,99.90
2018-06-22T23:45:45.435Z,99.90
2018-06-22T23:48:14.764Z,99.90
2018-06-22T23:50:43.728Z,99.90
2018-06-22T23:53:12.742Z,99.90
2018-06-22T23:55:41.688Z,99.90
2018-06-22T23:58:10.740Z,99.90
